Time;durP1;ratioP1;P1;durP2;ratioP2;P2;SDS_P1;SDS_P2;PMS_P1;PMS_P2;Temp;Humidity;BMP_temperature;BMP_pressure;BME280_temperature;BME280_humidity;BME280_pressure;Samples;Min_cycle;Max_cycle;Signal;HPM_P1;HPM_P2
2022/11/22 00:00:36;;;;;;;15.80;12.10;;;3.60;78.10;;;6.16;58.63;99589.56;5075568;28;20656;-56
2022/11/22 00:03:03;;;;;;;16.23;11.10;;;3.60;78.20;;;6.13;58.81;99591.53;5075069;28;20283;-59
2022/11/22 00:05:30;;;;;;;14.83;10.77;;;3.60;78.10;;;6.23;58.37;99580.84;5056361;28;20202;-57
2022/11/22 00:07:57;;;;;;;14.00;10.77;;;3.60;78.10;;;6.31;58.56;99591.22;5058654;28;20210;-58
2022/11/22 00:10:25;;;;;;;15.67;10.67;;;3.60;78.20;;;6.36;58.45;99596.75;5075526;28;20195;-57
2022/11/22 00:12:54;;;;;;;16.53;11.13;;;3.70;78.20;;;6.29;58.80;99581.94;5075473;28;20696;-58
2022/11/22 00:15:21;;;;;;;14.20;10.73;;;3.70;78.20;;;6.29;58.71;99593.22;5088354;28;20196;-54
2022/11/22 00:17:48;;;;;;;16.67;11.77;;;3.70;78.20;;;6.26;58.34;99596.16;5095822;28;20339;-56
2022/11/22 00:20:15;;;;;;;13.20;10.73;;;3.70;78.10;;;6.27;58.66;99582.13;5077014;28;20562;-56
2022/11/22 00:22:42;;;;;;;14.43;10.60;;;3.70;78.20;;;6.29;59.47;99580.16;5055966;28;20245;-59
2022/11/22 00:25:11;;;;;;;16.10;11.23;;;3.70;78.10;;;6.30;58.38;99576.53;5056605;28;20647;-59
2022/11/22 00:27:38;;;;;;;13.50;10.73;;;3.70;78.20;;;6.34;58.91;99577.81;5060594;28;20185;-58
2022/11/22 00:30:07;;;;;;;14.53;10.20;;;3.80;78.20;;;6.40;58.98;99568.44;5056696;28;20248;-56
2022/11/22 00:32:35;;;;;;;13.37;10.93;;;3.80;78.20;;;6.42;58.18;99564.66;5054979;28;20222;-57
2022/11/22 00:35:02;;;;;;;17.47;11.90;;;3.80;78.10;;;6.48;57.98;99558.75;5054203;28;20186;-56
2022/11/22 00:37:29;;;;;;;15.10;10.90;;;3.80;78.00;;;6.47;58.66;99561.53;5067174;28;20198;-59
2022/11/22 00:39:56;;;;;;;14.13;10.53;;;3.80;78.00;;;6.49;57.86;99547.28;5075732;28;20246;-58
2022/11/22 00:42:23;;;;;;;16.60;11.30;;;3.80;77.80;;;6.54;58.20;99544.16;5074815;28;20609;-57
2022/11/22 00:44:51;;;;;;;12.77;10.23;;;3.90;77.80;;;6.56;57.88;99548.22;5075502;28;20635;-56
2022/11/22 00:47:19;;;;;;;17.20;11.67;;;3.90;78.00;;;6.56;57.90;99547.41;5075181;28;20250;-57
2022/11/22 00:49:46;;;;;;;17.63;11.70;;;3.90;77.90;;;6.53;57.85;99543.34;5075167;28;20190;-56
2022/11/22 00:52:14;;;;;;;15.80;11.17;;;3.80;77.80;;;6.49;58.92;99539.44;5075001;28;20207;-58
2022/11/22 00:54:41;;;;;;;16.60;11.87;;;3.90;77.80;;;6.44;59.02;99530.53;5077182;28;20190;-57
2022/11/22 00:57:09;;;;;;;13.53;10.80;;;3.80;77.70;;;6.39;58.64;99523.25;5102297;28;20253;-59
2022/11/22 00:59:36;;;;;;;16.17;12.60;;;3.90;77.80;;;6.33;58.31;99523.13;5084433;28;20222;-57
2022/11/22 01:02:03;;;;;;;15.67;11.63;;;3.80;77.90;;;6.30;59.38;99531.34;5074209;28;20268;-58
2022/11/22 01:04:32;;;;;;;17.50;11.77;;;3.80;77.90;;;6.33;59.16;99531.78;5074400;28;20661;-57
2022/11/22 01:06:59;;;;;;;17.17;12.00;;;3.80;77.90;;;6.35;58.87;99521.94;5075189;28;20685;-57
2022/11/22 01:09:26;;;;;;;18.07;11.90;;;3.80;77.90;;;6.33;58.60;99523.94;5074670;28;20194;-58
2022/11/22 01:11:53;;;;;;;17.70;13.40;;;3.80;78.00;;;6.28;59.02;99530.66;5070497;28;20304;-58
2022/11/22 01:14:21;;;;;;;16.20;12.27;;;3.70;77.90;;;6.34;59.38;99515.13;5062270;28;20532;-58
2022/11/22 01:16:48;;;;;;;17.73;13.47;;;3.80;78.10;;;6.32;58.56;99514.50;5095063;28;20277;-57
2022/11/22 01:19:15;;;;;;;19.20;12.63;;;3.80;78.30;;;6.35;58.49;99521.13;5087897;28;20263;-58
2022/11/22 01:21:44;;;;;;;18.90;13.03;;;3.80;78.30;;;6.20;59.76;99526.34;5074357;28;20214;-58
2022/11/22 01:24:11;;;;;;;18.60;13.07;;;3.70;78.40;;;6.24;58.91;99522.38;5074550;28;20193;-58
2022/11/22 01:26:38;;;;;;;19.23;13.50;;;3.80;78.40;;;6.34;59.44;99517.72;5073584;28;20185;-57
2022/11/22 01:29:05;;;;;;;18.53;12.83;;;3.80;78.50;;;6.40;59.59;99526.63;5054666;28;20191;-55
2022/11/22 01:31:32;;;;;;;20.27;13.37;;;3.80;78.40;;;6.46;58.58;99518.94;5053928;28;20704;-56
2022/11/22 01:33:59;;;;;;;18.43;13.03;;;3.80;78.50;;;6.51;58.42;99527.00;5054739;28;20265;-57
2022/11/22 01:36:26;;;;;;;22.50;13.57;;;3.90;78.60;;;6.59;58.43;99524.34;5054458;28;20646;-57
2022/11/22 01:38:55;;;;;;;22.43;14.03;;;3.80;78.60;;;6.62;58.05;99521.38;5054319;28;20221;-58
2022/11/22 01:41:22;;;;;;;23.60;14.83;;;3.90;78.50;;;6.62;58.06;99529.22;5054179;28;20211;-58
2022/11/22 01:43:49;;;;;;;20.43;13.40;;;3.90;78.50;;;6.62;58.99;99529.22;5056977;28;20195;-58
2022/11/22 01:46:31;;;;;;;23.17;14.70;;;3.90;78.40;;;6.62;58.92;99523.97;5073994;28;20598;-57
2022/11/22 01:49:03;;;;;;;23.57;15.60;;;3.90;78.50;;;6.56;58.54;99519.44;5074489;28;20194;-60
2022/11/22 01:51:36;;;;;;;23.50;15.73;;;3.90;78.40;;;6.59;59.03;99523.50;5073739;28;20210;-58
2022/11/22 01:54:14;;;;;;;25.80;15.63;;;3.90;78.60;;;6.55;58.87;99512.63;5073785;28;20210;-57
2022/11/22 01:56:49;;;;;;;26.33;14.93;;;4.00;78.60;;;6.61;58.55;99519.72;5074125;28;20211;-58
2022/11/22 01:59:23;;;;;;;23.87;15.33;;;4.00;78.60;;;6.61;59.13;99524.97;5074075;28;20231;-56
2022/11/22 02:01:52;;;;;;;26.03;14.90;;;4.00;78.80;;;6.61;59.19;99521.53;5072200;28;20232;-57
2022/11/22 02:04:22;;;;;;;22.77;14.93;;;4.00;78.80;;;6.60;58.80;99519.94;5074103;28;20204;-58
2022/11/22 02:06:58;;;;;;;26.80;15.97;;;4.00;78.90;;;6.55;58.93;99512.63;5073798;28;20258;-57
2022/11/22 02:09:28;;;;;;;25.07;15.50;;;3.90;79.10;;;6.56;58.99;99508.22;5073937;28;20187;-58
2022/11/22 02:12:00;;;;;;;30.23;15.57;;;4.00;79.30;;;6.57;59.30;99513.25;5073072;28;20221;-59
2022/11/22 02:14:29;;;;;;;29.17;17.07;;;4.00;80.20;;;6.52;59.67;99517.38;5078106;28;20186;-58
2022/11/22 02:16:56;;;;;;;38.00;18.10;;;3.90;79.60;;;6.40;60.63;99519.63;5083209;28;20533;-58
2022/11/22 02:19:35;;;;;;;28.53;16.10;;;3.90;79.80;;;6.34;60.40;99502.06;5053740;28;20671;-57
2022/11/22 02:22:18;;;;;;;31.37;16.50;;;3.90;80.00;;;6.32;60.29;99498.81;5053570;28;20206;-59
2022/11/22 02:24:55;;;;;;;30.07;17.30;;;3.90;80.10;;;6.37;60.87;99488.63;5054142;28;20192;-57
2022/11/22 02:27:25;;;;;;;30.87;16.50;;;3.90;80.20;;;6.43;60.51;99492.31;5054005;28;20189;-54
2022/11/22 02:29:52;;;;;;;35.27;18.97;;;3.90;80.20;;;6.44;60.53;99483.50;5054597;28;20193;-57
2022/11/22 02:32:20;;;;;;;31.73;17.20;;;3.90;80.30;;;6.47;60.72;99478.72;5072992;28;20225;-59
2022/11/22 02:34:49;;;;;;;30.60;17.83;;;3.90;80.40;;;6.48;60.26;99469.91;5073487;28;20261;-55
2022/11/22 02:37:24;;;;;;;29.67;17.47;;;3.90;80.40;;;6.52;60.08;99471.16;5073485;28;20214;-58
2022/11/22 02:39:58;;;;;;;35.23;18.87;;;3.90;80.30;;;6.42;60.36;99462.75;5073471;28;20206;-58
2022/11/22 02:42:29;;;;;;;33.43;18.60;;;3.90;80.70;;;6.47;61.19;99468.28;5072503;28;20586;-59
2022/11/22 02:44:57;;;;;;;32.27;18.37;;;3.90;80.60;;;6.48;60.81;99475.13;5064021;28;20657;-57
2022/11/22 02:47:24;;;;;;;34.80;18.27;;;3.90;80.80;;;6.47;61.38;99477.91;5059816;28;20193;-57
2022/11/22 02:49:51;;;;;;;35.40;18.33;;;3.90;81.00;;;6.51;61.47;99464.28;5073350;28;20193;-58
2022/11/22 02:52:19;;;;;;;32.50;19.33;;;4.00;81.00;;;6.56;60.94;99463.78;5072925;28;20214;-59
2022/11/22 02:54:47;;;;;;;37.23;18.33;;;4.00;81.40;;;6.60;61.46;99459.81;5073670;28;20569;-56
2022/11/22 02:57:14;;;;;;;34.57;17.53;;;4.00;81.40;;;6.63;60.96;99446.38;5073369;28;20206;-55
2022/11/22 02:59:42;;;;;;;31.03;18.40;;;4.00;82.20;;;6.66;61.68;99446.00;5071724;28;20212;-59
2022/11/22 03:02:09;;;;;;;35.60;19.70;;;4.10;81.70;;;6.61;60.96;99446.53;5072854;28;20221;-59
2022/11/22 03:04:37;;;;;;;35.73;19.57;;;4.00;81.70;;;6.64;60.94;99438.34;5072970;28;20574;-58
2022/11/22 03:07:04;;;;;;;33.83;18.73;;;4.10;81.90;;;6.67;61.93;99448.44;5073286;28;20565;-59
2022/11/22 03:09:31;;;;;;;31.03;18.17;;;4.10;82.80;;;6.71;62.04;99452.31;5073321;28;20193;-56
2022/11/22 03:11:59;;;;;;;33.40;18.30;;;4.10;82.10;;;6.70;61.61;99450.69;5087598;28;20208;-59
2022/11/22 03:14:27;;;;;;;37.73;18.53;;;4.10;82.20;;;6.72;61.15;99446.09;5068914;28;20182;-56
2022/11/22 03:16:55;;;;;;;37.10;19.87;;;4.10;82.30;;;6.79;61.83;99451.41;5093433;28;20246;-57
2022/11/22 03:19:22;;;;;;;35.90;18.83;;;4.10;82.40;;;6.80;61.01;99447.78;5085683;28;20211;-56
2022/11/22 03:21:49;;;;;;;33.23;19.83;;;4.10;82.40;;;6.80;61.98;99445.19;5072689;28;20689;-56
2022/11/22 03:24:19;;;;;;;35.77;19.70;;;4.10;82.40;;;6.81;61.53;99445.00;5072888;28;20189;-58
2022/11/22 03:26:47;;;;;;;36.40;19.57;;;4.20;82.50;;;6.87;61.24;99438.22;5074696;28;20201;-56
2022/11/22 03:29:16;;;;;;;31.53;17.87;;;4.20;82.50;;;6.86;62.01;99435.78;5075997;28;20183;-56
2022/11/22 03:31:43;;;;;;;31.73;18.87;;;4.20;82.60;;;6.89;61.94;99435.44;5056065;28;20565;-56
2022/11/22 03:34:12;;;;;;;34.10;19.77;;;4.20;82.50;;;6.96;61.83;99431.09;5056738;28;20252;-55
2022/11/22 03:36:39;;;;;;;30.00;16.67;;;4.20;82.50;;;7.01;61.64;99429.56;5072373;28;20245;-56
2022/11/22 03:39:07;;;;;;;35.10;20.00;;;4.30;82.60;;;7.07;60.90;99430.63;5056598;28;20218;-54
2022/11/22 03:41:34;;;;;;;30.60;18.33;;;4.30;82.70;;;7.09;61.49;99431.22;5056186;28;20269;-56
2022/11/22 03:44:02;;;;;;;32.30;19.10;;;4.30;82.60;;;7.12;60.96;99423.84;5058045;28;20194;-57
2022/11/22 03:46:29;;;;;;;28.77;17.97;;;4.40;82.70;;;7.11;60.89;99418.78;5057951;28;20195;-58
2022/11/22 03:48:56;;;;;;;28.43;18.63;;;4.40;82.70;;;7.09;60.88;99415.53;5075888;28;20195;-56
2022/11/22 03:51:25;;;;;;;33.07;18.33;;;4.40;82.50;;;7.08;60.92;99419.16;5075877;28;20217;-59
2022/11/22 03:53:52;;;;;;;29.67;18.40;;;4.40;82.30;;;7.11;61.66;99424.00;5077945;28;20211;-58
2022/11/22 03:56:19;;;;;;;30.93;18.40;;;4.40;82.60;;;7.07;61.81;99433.22;5085838;28;20194;-58
2022/11/22 03:58:46;;;;;;;30.23;19.03;;;4.40;82.60;;;6.98;62.12;99429.09;5085002;28;20210;-59
2022/11/22 04:01:13;;;;;;;26.70;16.80;;;4.40;82.50;;;7.00;61.40;99432.34;5077930;28;20217;-59
2022/11/22 04:03:43;;;;;;;29.13;17.90;;;4.40;82.70;;;6.97;62.23;99436.13;5070183;28;20190;-58
2022/11/22 04:06:09;;;;;;;29.87;19.23;;;4.40;82.70;;;6.98;62.07;99429.09;5067876;28;20207;-58
2022/11/22 04:08:38;;;;;;;28.27;17.83;;;4.40;82.80;;;7.01;62.03;99420.91;5067197;28;20195;-58
2022/11/22 04:11:05;;;;;;;26.20;16.57;;;4.40;82.60;;;7.07;61.90;99418.34;5065368;28;20215;-57
2022/11/22 04:16:18;;;;;;;26.57;17.03;;;4.40;83.00;;;7.18;61.36;99404.00;5085083;28;20205;-59
2022/11/22 04:18:45;;;;;;;29.30;17.70;;;4.50;82.90;;;7.18;61.49;99409.22;5084157;28;20192;-59
2022/11/22 04:26:45;;;;;;;25.80;17.40;;;4.50;82.50;;;7.05;61.86;99440.44;5065202;28;20182;-59
2022/11/22 04:29:12;;;;;;;26.03;16.63;;;4.50;82.40;;;7.09;61.80;99433.84;5064732;28;20200;-59
2022/11/22 04:34:24;;;;;;;25.13;16.53;;;4.50;82.60;;;7.18;61.39;99430.16;5064105;28;20206;-58
2022/11/22 04:36:51;;;;;;;26.00;17.90;;;4.50;82.60;;;7.23;61.44;99428.59;5064681;28;20191;-59
2022/11/22 04:39:20;;;;;;;25.97;17.27;;;4.50;82.60;;;7.27;61.64;99426.41;5065161;28;20218;-58
2022/11/22 04:44:39;;;;;;;25.77;17.13;;;4.60;82.70;;;7.18;61.52;99435.38;5066524;28;20218;-58
2022/11/22 04:44:40;;;;;;;26.23;16.27;;;4.50;82.50;;;7.17;61.67;99433.75;5065363;28;20232;-57
2022/11/22 04:47:07;;;;;;;26.30;17.50;;;4.60;82.50;;;7.04;62.24;99433.59;5069713;28;20197;-60
2022/11/22 04:49:35;;;;;;;28.20;16.93;;;4.50;82.50;;;6.95;61.72;99427.66;5082846;28;20217;-59
2022/11/22 04:54:50;;;;;;;25.70;16.33;;;4.50;82.60;;;6.87;62.39;99426.97;5085712;28;20190;-58
2022/11/22 04:57:18;;;;;;;23.90;15.80;;;4.50;82.90;;;6.91;63.00;99429.03;5095128;28;20198;-58
2022/11/22 04:59:44;;;;;;;23.47;15.07;;;4.50;83.00;;;6.95;63.07;99419.00;5080946;28;20230;-57
2022/11/22 05:02:11;;;;;;;26.33;16.90;;;4.50;83.30;;;6.91;62.74;99420.38;5082579;28;20215;-63
2022/11/22 05:04:38;;;;;;;25.07;17.23;;;4.50;83.40;;;6.92;62.95;99428.03;5082439;28;20195;-58
2022/11/22 05:07:05;;;;;;;22.33;15.77;;;4.50;83.20;;;6.97;63.07;99425.69;5081986;28;20716;-59
2022/11/22 05:09:32;;;;;;;30.40;18.23;;;4.50;83.30;;;7.04;62.48;99430.97;5081838;28;20194;-58
2022/11/22 05:12:01;;;;;;;30.43;17.07;;;4.50;83.40;;;7.03;62.61;99430.19;5068555;28;20283;-59
2022/11/22 05:14:28;;;;;;;28.00;17.33;;;4.50;83.40;;;6.96;62.61;99425.88;5071101;28;20646;-59
2022/11/22 05:16:55;;;;;;;24.10;15.93;;;4.50;84.30;;;6.86;63.16;99426.16;5102752;28;20655;-57
2022/11/22 05:19:22;;;;;;;29.70;18.27;;;4.50;83.60;;;6.84;63.34;99425.53;5093375;28;20213;-59
2022/11/22 05:21:49;;;;;;;25.30;17.13;;;4.50;83.90;;;6.77;63.59;99442.94;5081330;28;20214;-59
2022/11/22 05:24:16;;;;;;;26.57;16.17;;;4.40;84.00;;;6.68;63.84;99444.03;5080462;28;20247;-60
2022/11/22 05:26:43;;;;;;;25.57;16.53;;;4.40;84.20;;;6.64;64.33;99448.81;5066244;28;20203;-59
2022/11/22 05:29:11;;;;;;;25.20;15.87;;;4.40;84.40;;;6.67;64.78;99443.22;5061063;28;20247;-58
2022/11/22 05:31:39;;;;;;;25.70;15.30;;;4.40;84.50;;;6.72;64.58;99450.53;5059117;28;20254;-58
2022/11/22 05:34:06;;;;;;;26.10;16.50;;;4.40;85.40;;;6.66;64.49;99456.47;5058889;28;20194;-59
2022/11/22 05:36:34;;;;;;;25.40;15.53;;;4.30;84.90;;;6.66;64.63;99446.81;5060363;28;20221;-59
2022/11/22 05:39:02;;;;;;;24.67;15.00;;;4.40;84.90;;;6.74;65.07;99449.34;5060714;28;20195;-57
2022/11/22 05:41:30;;;;;;;24.53;15.87;;;4.40;85.00;;;6.63;64.75;99457.63;5080278;28;20209;-58
2022/11/22 05:43:57;;;;;;;28.03;16.83;;;4.30;84.80;;;6.62;64.44;99456.03;5080337;28;20199;-58
2022/11/22 05:46:27;;;;;;;26.93;16.13;;;4.40;85.00;;;6.62;65.11;99452.59;5080902;28;20201;-57
2022/11/22 05:48:56;;;;;;;27.17;17.23;;;4.40;85.10;;;6.71;64.25;99451.50;5077600;28;20647;-58
2022/11/22 05:51:26;;;;;;;21.83;14.87;;;4.40;85.10;;;6.59;65.38;99469.44;5079042;28;20211;-60
2022/11/22 05:54:01;;;;;;;25.87;16.80;;;4.30;85.00;;;6.58;65.21;99461.78;5076038;28;20287;-59
2022/11/22 05:56:28;;;;;;;26.73;16.23;;;4.40;85.00;;;6.70;65.05;99468.19;5078375;28;20598;-58
2022/11/22 05:58:55;;;;;;;26.50;16.53;;;4.40;85.20;;;6.70;64.76;99458.53;5079481;28;20198;-61
2022/11/22 06:01:24;;;;;;;28.27;17.03;;;4.40;85.10;;;6.68;64.90;99465.75;5078133;28;20278;-58
2022/11/22 06:03:51;;;;;;;23.13;16.20;;;4.40;85.10;;;6.71;64.67;99464.56;5080739;28;20186;-57
2022/11/22 06:06:19;;;;;;;27.03;17.03;;;4.40;85.10;;;6.66;65.13;99452.03;5080833;28;20248;-57
2022/11/22 06:08:47;;;;;;;26.70;16.80;;;4.40;85.00;;;6.64;64.45;99459.25;5079480;28;20273;-59
2022/11/22 06:11:18;;;;;;;26.83;16.00;;;4.40;85.00;;;6.64;64.79;99459.25;5078872;28;20238;-60
2022/11/22 06:13:49;;;;;;;25.10;16.33;;;4.40;85.10;;;6.59;64.81;99474.66;5080738;28;20183;-60
2022/11/22 06:16:16;;;;;;;23.23;15.20;;;4.30;85.00;;;6.60;65.32;99462.41;5077817;28;20198;-60
2022/11/22 06:18:45;;;;;;;27.20;16.50;;;4.30;85.00;;;6.64;64.66;99461.88;5078882;28;20189;-60
2022/11/22 06:21:15;;;;;;;22.07;14.33;;;4.40;85.10;;;6.68;64.22;99465.75;5077160;28;20232;-59
2022/11/22 06:23:42;;;;;;;22.53;15.47;;;4.40;85.00;;;6.81;64.97;99465.94;5061803;28;20237;-58
2022/11/22 06:26:12;;;;;;;26.10;16.90;;;4.40;85.20;;;6.74;64.49;99459.81;5059854;28;20187;-59
2022/11/22 06:28:40;;;;;;;27.53;16.60;;;4.40;85.10;;;6.70;64.29;99455.91;5060563;28;20599;-59
2022/11/22 06:31:11;;;;;;;24.03;16.13;;;4.40;85.10;;;6.76;64.10;99465.66;5059303;28;20249;-60
2022/11/22 06:33:39;;;;;;;25.87;15.63;;;4.40;85.10;;;6.74;64.65;99470.25;5059126;28;20195;-59
2022/11/22 06:36:09;;;;;;;24.20;16.37;;;4.40;85.20;;;6.78;64.82;99473.31;5066503;28;20205;-58
2022/11/22 06:38:38;;;;;;;26.37;17.10;;;4.40;85.20;;;6.70;65.36;99468.97;5080523;28;20181;-59
2022/11/22 06:41:09;;;;;;;23.87;15.27;;;4.40;85.30;;;6.70;65.10;99463.75;5076690;28;20226;-56
2022/11/22 06:43:40;;;;;;;25.13;16.30;;;4.50;85.30;;;6.79;64.79;99457.47;5074747;28;20622;-58
2022/11/22 06:46:16;;;;;;;24.27;15.93;;;4.50;85.40;;;6.79;64.79;99449.63;5074913;28;20195;-60
2022/11/22 06:48:43;;;;;;;25.83;16.87;;;4.50;85.40;;;6.86;64.96;99456.72;5074673;28;20533;-56
2022/11/22 06:51:15;;;;;;;27.70;16.37;;;4.50;85.40;;;6.82;64.37;99451.06;5072237;28;20217;-58
2022/11/22 06:53:42;;;;;;;25.70;16.60;;;4.50;85.50;;;6.86;65.18;99443.66;5075407;28;20200;-58
2022/11/22 06:56:17;;;;;;;22.60;15.17;;;4.50;85.30;;;7.03;64.21;99439.84;5094471;28;20198;-56
2022/11/22 06:58:45;;;;;;;24.60;16.23;;;4.60;85.30;;;7.13;64.04;99448.19;5090020;28;20578;-56
2022/11/22 07:01:15;;;;;;;25.97;16.63;;;4.60;85.50;;;7.19;64.11;99444.84;5077778;28;20613;-58
2022/11/22 07:03:43;;;;;;;23.50;16.23;;;4.60;85.30;;;7.20;63.90;99449.09;5079558;28;20195;-58
2022/11/22 07:06:14;;;;;;;27.20;17.40;;;4.60;85.10;;;7.04;63.97;99449.28;5078936;28;20508;-56
2022/11/22 07:08:42;;;;;;;25.40;17.13;;;4.60;85.00;;;7.12;64.35;99457.03;5078458;28;20565;-57
2022/11/22 07:11:12;;;;;;;27.40;17.13;;;4.60;85.00;;;7.10;63.96;99448.56;5077944;28;20207;-58
2022/11/22 07:13:40;;;;;;;24.30;16.47;;;4.70;85.80;;;7.16;64.07;99455.66;5067749;28;20208;-59
2022/11/22 07:16:10;;;;;;;26.13;17.23;;;4.70;85.10;;;7.09;64.55;99455.59;5095076;28;20193;-58
2022/11/22 07:18:38;;;;;;;25.27;16.33;;;4.70;85.10;;;6.98;64.48;99465.72;5095758;28;20177;-58
2022/11/22 07:21:08;;;;;;;26.53;17.00;;;4.60;85.00;;;7.00;64.12;99474.19;5077018;28;20226;-57
2022/11/22 07:23:43;;;;;;;29.33;18.13;;;4.70;85.10;;;7.01;64.56;99474.03;5080011;28;20644;-59
2022/11/22 07:26:13;;;;;;;25.53;16.63;;;4.70;85.20;;;7.12;64.54;99468.31;5077366;28;20671;-61
2022/11/22 07:28:40;;;;;;;28.50;18.63;;;4.70;85.20;;;7.19;64.16;99471.81;5079380;28;20191;-56
2022/11/22 07:31:10;;;;;;;29.10;17.30;;;4.70;85.00;;;7.34;64.23;99487.50;5080948;28;20221;-61
2022/11/22 07:33:38;;;;;;;26.27;17.50;;;4.80;85.20;;;7.35;63.76;99495.13;5080996;28;20169;-58
2022/11/22 07:36:07;;;;;;;27.87;18.13;;;4.80;85.10;;;7.38;63.82;99502.63;5082377;28;20245;-58
2022/11/22 07:38:36;;;;;;;27.40;18.70;;;4.80;84.90;;;7.39;63.61;99514.69;5070089;28;20199;-58
2022/11/22 07:41:05;;;;;;;31.40;18.53;;;4.80;84.80;;;7.39;63.22;99516.53;5060227;28;20209;-58
2022/11/22 07:43:33;;;;;;;26.90;17.17;;;4.90;84.80;;;7.48;63.39;99512.81;5077287;28;20201;-58
2022/11/22 07:46:00;;;;;;;25.83;17.63;;;4.90;84.90;;;7.53;63.22;99518.31;5077108;28;20198;-57
2022/11/22 07:48:28;;;;;;;24.17;17.40;;;4.90;84.80;;;7.50;63.23;99513.44;5073809;28;20231;-59
2022/11/22 07:50:55;;;;;;;32.63;17.33;;;4.90;84.80;;;7.50;63.29;99514.25;5057299;28;20195;-56
2022/11/22 07:53:22;;;;;;;25.30;17.87;;;5.00;84.80;;;7.59;63.11;99514.94;5061816;28;20413;-59
2022/11/22 07:55:50;;;;;;;27.43;17.50;;;5.00;84.90;;;7.56;63.53;99512.66;5082764;28;20675;-58
2022/11/22 07:58:19;;;;;;;29.63;17.73;;;5.00;84.80;;;7.58;63.48;99508.09;5076644;28;20201;-57
2022/11/22 08:00:46;;;;;;;26.93;18.13;;;5.00;84.80;;;7.66;63.02;99522.84;5075947;28;20687;-57
2022/11/22 08:03:13;;;;;;;30.50;18.23;;;5.00;84.90;;;7.62;63.41;99527.66;5076542;28;20193;-58
2022/11/22 08:05:43;;;;;;;28.00;18.10;;;5.00;84.90;;;7.67;63.24;99524.47;5076691;28;20544;-58
2022/11/22 08:08:10;;;;;;;27.47;18.23;;;5.10;84.90;;;7.67;63.14;99530.53;5075856;28;20191;-59
2022/11/22 08:10:42;;;;;;;26.00;18.10;;;5.10;84.90;;;7.67;63.32;99537.56;5071886;28;20203;-58
2022/11/22 08:13:09;;;;;;;26.40;17.60;;;5.10;84.90;;;7.74;63.29;99541.88;5060031;28;20199;-59
2022/11/22 08:15:38;;;;;;;24.30;16.70;;;5.20;85.00;;;7.71;63.59;99541.44;5079477;28;20238;-59
2022/11/22 08:18:09;;;;;;;30.77;18.20;;;5.20;84.90;;;7.65;63.66;99532.53;5085960;28;20211;-62
2022/11/22 08:20:36;;;;;;;31.07;19.63;;;5.20;84.80;;;7.68;63.38;99534.75;5064798;28;20691;-58
2022/11/22 08:23:03;;;;;;;27.93;18.37;;;5.20;84.80;;;7.75;63.08;99538.25;5072068;28;20287;-58
2022/11/22 08:25:30;;;;;;;25.70;16.83;;;5.20;84.80;;;7.78;63.34;99532.66;5065975;28;20213;-58
2022/11/22 08:28:00;;;;;;;25.83;17.30;;;5.30;84.80;;;7.75;62.97;99545.31;5063106;28;20191;-59
2022/11/22 08:30:30;;;;;;;26.67;17.03;;;5.20;84.60;;;7.80;62.99;99551.59;5064824;28;20195;-59
2022/11/22 08:32:59;;;;;;;28.77;17.73;;;5.30;84.70;;;7.72;62.96;99554.34;5060950;28;20221;-57
2022/11/22 08:35:26;;;;;;;23.73;16.57;;;5.20;84.50;;;7.73;63.74;99558.56;5075005;28;20223;-59
2022/11/22 08:37:56;;;;;;;23.73;16.23;;;5.30;84.70;;;7.82;63.32;99559.28;5079302;28;20202;-60
2022/11/22 08:40:23;;;;;;;25.97;17.27;;;5.30;84.60;;;7.95;63.07;99549.75;5084178;28;20203;-61
2022/11/22 08:42:54;;;;;;;26.67;16.17;;;5.30;85.40;;;8.03;62.55;99547.00;5064081;28;20235;-59
2022/11/22 08:45:21;;;;;;;23.67;16.50;;;5.40;84.80;;;8.12;62.62;99548.50;5061672;28;20231;-59
2022/11/22 08:47:48;;;;;;;26.70;17.60;;;5.40;84.80;;;8.11;62.49;99549.50;5067149;28;20249;-59
2022/11/22 08:50:18;;;;;;;26.07;17.53;;;5.40;84.60;;;8.16;62.66;99556.78;5073213;28;20199;-58
2022/11/22 08:52:45;;;;;;;26.60;17.70;;;5.50;84.60;;;8.27;62.27;99550.28;5077258;28;20220;-59
2022/11/22 08:55:12;;;;;;;22.67;16.10;;;5.50;84.70;;;8.26;62.24;99551.22;5083673;28;20227;-59
2022/11/22 08:57:39;;;;;;;27.63;18.57;;;5.60;84.40;;;8.27;62.22;99561.56;5078334;28;20280;-57
2022/11/22 09:00:08;;;;;;;28.00;17.67;;;5.60;84.40;;;8.28;62.35;99564.97;5075290;28;20197;-57
2022/11/22 09:02:35;;;;;;;23.37;17.03;;;5.60;84.20;;;8.24;62.34;99566.34;5068117;28;20568;-57
2022/11/22 09:05:02;;;;;;;28.77;17.33;;;5.60;84.20;;;8.30;62.52;99560.34;5058740;28;20227;-59
2022/11/22 09:07:31;;;;;;;25.70;16.67;;;5.70;84.30;;;8.30;62.33;99568.22;5057193;28;20190;-57
2022/11/22 09:10:18;;;;;;;25.43;16.23;;;5.70;84.30;;;8.34;62.29;99580.78;5068005;28;20580;-58
2022/11/22 09:12:45;;;;;;;23.73;16.43;;;5.70;84.20;;;8.30;61.87;99578.72;5075512;28;20221;-57
2022/11/22 09:15:14;;;;;;;25.63;16.83;;;5.70;84.10;;;8.26;62.45;99572.19;5072594;28;20300;-59
2022/11/22 09:17:45;;;;;;;25.63;16.27;;;5.70;84.10;;;8.31;62.68;99585.59;5054492;28;20226;-59
2022/11/22 09:20:16;;;;;;;22.80;15.90;;;5.80;84.30;;;8.34;62.61;99575.53;5072230;28;20198;-61
2022/11/22 09:22:47;;;;;;;25.63;17.87;;;5.80;84.20;;;8.40;62.26;99579.19;5075161;28;20213;-60
2022/11/22 09:25:14;;;;;;;25.03;16.07;;;5.80;84.20;;;8.50;62.17;99584.94;5074210;28;20284;-59
2022/11/22 09:27:41;;;;;;;24.50;16.90;;;5.80;84.30;;;8.47;62.23;99590.56;5076301;28;20173;-59
2022/11/22 09:30:11;;;;;;;23.30;15.73;;;5.80;84.00;;;8.47;62.16;99580.06;5074599;28;20545;-59
2022/11/22 09:32:42;;;;;;;23.20;15.73;;;5.90;84.00;;;8.49;62.35;99585.94;5069949;28;20218;-58
2022/11/22 09:35:10;;;;;;;22.90;16.17;;;5.90;84.10;;;8.57;62.21;99575.31;5071235;28;20248;-60
2022/11/22 09:37:38;;;;;;;24.33;16.53;;;5.90;84.00;;;8.58;61.93;99582.19;5055171;28;20293;-62
2022/11/22 09:40:10;;;;;;;23.63;16.10;;;5.90;83.90;;;8.63;61.93;99585.03;5055753;28;20200;-58
2022/11/22 09:43:14;;;;;;;25.53;16.83;;;6.00;83.90;;;8.62;62.01;99588.66;5038021;28;20257;-59
2022/11/22 09:46:17;;;;;;;21.47;15.13;;;6.00;83.90;;;8.62;62.04;99596.53;5060473;28;20571;-61
2022/11/22 09:49:12;;;;;;;23.83;15.53;;;6.00;84.70;;;8.65;61.75;99593.53;5071122;28;20202;-59
2022/11/22 09:51:49;;;;;;;23.30;16.10;;;6.10;84.00;;;8.71;62.08;99587.53;5061535;28;20299;-58
2022/11/22 09:54:24;;;;;;;22.93;15.63;;;6.10;84.00;;;8.74;62.33;99581.91;5078492;28;20178;-58
2022/11/22 09:56:59;;;;;;;23.90;15.97;;;6.10;84.00;;;8.76;62.06;99593.00;5087802;28;20193;-55
2022/11/22 09:59:33;;;;;;;23.30;16.50;;;6.10;84.00;;;8.80;61.91;99583.75;5066674;28;20231;-55
2022/11/22 10:02:07;;;;;;;24.97;15.00;;;6.10;84.00;;;8.85;61.82;99592.66;5059737;28;20293;-57
2022/11/22 10:04:55;;;;;;;21.00;14.90;;;6.20;84.80;;;8.90;61.78;99592.09;5078581;28;20191;-57
2022/11/22 10:07:31;;;;;;;20.60;15.73;;;6.20;84.00;;;8.86;61.71;99596.13;5097460;28;20311;-56
2022/11/22 10:10:06;;;;;;;23.73;15.60;;;6.20;83.90;;;8.86;61.69;99603.97;5089430;28;20260;-55
2022/11/22 10:12:46;;;;;;;23.57;15.50;;;6.30;84.10;;;8.98;61.82;99602.44;5075315;28;20229;-55
2022/11/22 10:15:28;;;;;;;25.23;15.40;;;6.30;84.10;;;9.05;61.67;99603.31;5082167;28;20200;-56
2022/11/22 10:18:01;;;;;;;20.60;14.77;;;6.40;84.10;;;9.09;61.88;99606.34;5074286;28;20212;-56
2022/11/22 10:20:39;;;;;;;23.03;16.40;;;6.40;83.80;;;9.15;61.57;99603.75;5058387;28;20343;-56
2022/11/22 10:23:19;;;;;;;24.53;15.83;;;6.50;83.70;;;9.13;61.51;99603.13;5055754;28;20195;-59
2022/11/22 10:25:57;;;;;;;22.57;15.10;;;6.50;83.50;;;9.05;61.64;99603.31;5054814;28;20565;-60
2022/11/22 10:28:34;;;;;;;22.97;15.50;;;6.50;83.40;;;9.07;61.68;99595.22;5086677;28;20213;-58
2022/11/22 10:31:10;;;;;;;22.43;14.73;;;6.50;83.50;;;9.14;61.76;99594.25;5054090;28;20291;-59
2022/11/22 10:33:44;;;;;;;20.63;15.73;;;6.60;83.60;;;9.26;61.27;99592.72;5054221;28;20206;-58
2022/11/22 10:36:31;;;;;;;20.37;14.97;;;6.70;83.50;;;9.42;61.48;99602.88;5054735;28;20266;-58
2022/11/22 10:39:30;;;;;;;19.03;14.73;;;6.80;83.80;;;9.62;61.46;99596.91;5071562;28;20196;-57
2022/11/22 10:42:39;;;;;;;19.27;14.27;;;6.90;83.80;;;9.70;60.47;99588.88;5053894;28;20660;-56
2022/11/22 10:45:18;;;;;;;20.17;14.20;;;7.00;83.10;;;9.78;60.86;99575.53;5055453;28;20284;-55